^^
Datos históricos de la estación: Murcia-Puente Tocinos
Diario Informe para Junio 24, 2019 Unidades:  Métrico    Ingés   Ambas
Diario Semanal Mensual Anual
  Máxima: Mínima: Promedio:
Temperatura: 20.4 °C 9.3 °C 15.4 °C
Punto de rocio: 11.2 °C 2.9 °C 6.6 °C
Humedad: 75.5% 36.4% 57%
Velocidad viento: 22.5km/h 0km/h 9.2km/h
Racha viento: 38.9km/h - -
Viento- - Sur
Presión: 1010.6 hPa 1004.2 hPa -
Precipitación: 0.0 mm    
 
 
Tabla de datos para Junio 24, 2019
Hora Temperatura Punto de rocio Presión Viento Velocidad viento Racha viento Humedad Intensidad lluvia(por hora) Nubes
00:04 15.1 °C 4.7 °C 1004.2 hPa OSO 9.5 km/h 19.8 km/h 50% 0.0 mm
00:09 14.9 °C 5 °C 1004.2 hPa ONO 9.7 km/h 19.3 km/h 51.3% 0.0 mm
00:14 14.8 °C 5.1 °C 1004.2 hPa ONO 10.3 km/h 14.5 km/h 52.1% 0.0 mm
00:19 14.7 °C 4.8 °C 1004.5 hPa NO 8.8 km/h 12.9 km/h 51.7% 0.0 mm
00:24 14.5 °C 4.7 °C 1004.5 hPa NO 6.5 km/h 12.2 km/h 51.6% 0.0 mm
00:29 14.3 °C 4.4 °C 1004.5 hPa ONO 7.2 km/h 14.8 km/h 51.4% 0.0 mm
00:34 14.2 °C 4.3 °C 1004.8 hPa ONO 8.4 km/h 14.8 km/h 51.1% 0.0 mm
00:39 14.2 °C 4.3 °C 1004.8 hPa Oeste 7.8 km/h 12.9 km/h 51.5% 0.0 mm
00:44 14.1 °C 4.4 °C 1004.8 hPa Oeste 6.9 km/h 11.3 km/h 52% 0.0 mm
00:49 14 °C 4.3 °C 1004.9 hPa Oeste 5.4 km/h 8 km/h 52.3% 0.0 mm
00:54 13.9 °C 4.4 °C 1004.9 hPa OSO 2.9 km/h 9.5 km/h 53% 0.0 mm
00:59 13.8 °C 4.5 °C 1004.9 hPa OSO 4.3 km/h 11.1 km/h 53.5% 0.0 mm
01:04 13.7 °C 4.5 °C 1005.0 hPa Oeste 5.8 km/h 13 km/h 54% 0.0 mm
01:09 13.5 °C 4.6 °C 1005.0 hPa ONO 5.8 km/h 12.9 km/h 54.9% 0.0 mm
01:14 13.3 °C 4.7 °C 1005.0 hPa NO 5.8 km/h 11.3 km/h 55.8% 0.0 mm
01:19 13.2 °C 4.8 °C 1005.2 hPa NO 5.5 km/h 13.7 km/h 56.9% 0.0 mm
01:24 13 °C 4.6 °C 1005.2 hPa NO 5 km/h 14.5 km/h 57% 0.0 mm
01:29 12.9 °C 4.7 °C 1005.2 hPa NO 5.8 km/h 13 km/h 57.6% 0.0 mm
01:34 12.8 °C 4.7 °C 1005.2 hPa NO 6.9 km/h 12.9 km/h 58% 0.0 mm
01:39 12.7 °C 4.8 °C 1005.2 hPa NO 6 km/h 9.7 km/h 58.3% 0.0 mm
01:44 12.7 °C 4.9 °C 1005.2 hPa NO 4.7 km/h 8 km/h 59% 0.0 mm
01:49 12.6 °C 5 °C 1005.3 hPa NNO 3.7 km/h 6.9 km/h 59.7% 0.0 mm
01:54 12.5 °C 5 °C 1005.3 hPa NE 2.2 km/h 9.5 km/h 60.4% 0.0 mm
01:59 12.4 °C 5.1 °C 1005.3 hPa NNE 3.4 km/h 9.7 km/h 61% 0.0 mm
02:04 12.3 °C 5.2 °C 1005.4 hPa NNE 4.6 km/h 8 km/h 61.7% 0.0 mm
02:09 12.2 °C 5.1 °C 1005.4 hPa NNE 3.9 km/h 4.8 km/h 62% 0.0 mm
02:14 12.1 °C 5.1 °C 1005.4 hPa ENE 2.9 km/h 10.3 km/h 62.3% 0.0 mm
02:19 12.1 °C 5.1 °C 1005.4 hPa SE 3.8 km/h 11.9 km/h 62% 0.0 mm
02:24 12.1 °C 5.1 °C 1005.3 hPa SE 5 km/h 11.3 km/h 62% 0.0 mm
02:29 12.1 °C 5.1 °C 1005.3 hPa SSE 5.7 km/h 10.3 km/h 62% 0.0 mm
02:34 12.1 °C 5.1 °C 1005.3 hPa Sur 6.9 km/h 11.3 km/h 62% 0.0 mm
02:39 12.1 °C 5.1 °C 1005.3 hPa SO 6.9 km/h 11.3 km/h 62% 0.0 mm
02:44 12.1 °C 5.1 °C 1005.3 hPa OSO 6.9 km/h 11.3 km/h 62% 0.0 mm
02:49 12.1 °C 5 °C 1005.4 hPa OSO 6.5 km/h 10 km/h 61.7% 0.0 mm
02:54 12.2 °C 4.9 °C 1005.4 hPa OSO 5.8 km/h 9.7 km/h 61.1% 0.0 mm
02:59 12.2 °C 4.9 °C 1005.4 hPa SO 5.2 km/h 9.7 km/h 61% 0.0 mm
03:04 12.2 °C 5 °C 1005.4 hPa SO 4.6 km/h 8 km/h 61.3% 0.0 mm
03:09 12.1 °C 5.4 °C 1005.4 hPa ONO 4.1 km/h 8 km/h 63.5% 0.0 mm
03:14 11.8 °C 5.5 °C 1005.4 hPa NNE 3.2 km/h 11.9 km/h 65.6% 0.0 mm
03:19 11.3 °C 5.4 °C 1005.6 hPa ENE 3.8 km/h 11.3 km/h 67% 0.0 mm
03:24 11.1 °C 5.4 °C 1005.6 hPa ENE 4.7 km/h 7.4 km/h 68.2% 0.0 mm
03:29 10.9 °C 5.4 °C 1005.6 hPa ENE 4 km/h 8 km/h 69% 0.0 mm
03:34 10.9 °C 5.4 °C 1005.9 hPa ENE 2.9 km/h 3.2 km/h 69% 0.0 mm
03:39 10.9 °C 5.4 °C 1005.9 hPa ENE 1.7 km/h 5.8 km/h 69% 0.0 mm
03:44 10.9 °C 5.5 °C 1005.9 hPa Calm   6.4 km/h 69.2% 0.0 mm
03:49 10.9 °C 5.3 °C 1006.0 hPa NNO 0.9 km/h 7.6 km/h 68% 0.0 mm
03:54 11.1 °C 5.1 °C 1006.0 hPa ONO 2.2 km/h 9.5 km/h 66.6% 0.0 mm
03:59 11.2 °C 5.1 °C 1006.0 hPa Oeste 3.4 km/h 9.7 km/h 66% 0.0 mm
04:04 11.2 °C 5.1 °C 1006.2 hPa ONO 4.6 km/h 9.3 km/h 66% 0.0 mm
04:09 11.2 °C 5.1 °C 1006.2 hPa ONO 4.3 km/h 9.7 km/h 66% 0.0 mm
04:14 11.1 °C 5 °C 1006.2 hPa ONO 3.9 km/h 7.4 km/h 66% 0.0 mm
04:19 11.1 °C 5 °C 1006.2 hPa OSO 3.6 km/h 8 km/h 66% 0.0 mm
04:24 11.1 °C 5 °C 1006.2 hPa SO 3.2 km/h 9.3 km/h 66% 0.0 mm
04:29 11.1 °C 5 °C 1006.2 hPa SSO 3.9 km/h 9.7 km/h 66% 0.0 mm
04:34 11.1 °C 5.1 °C 1006.5 hPa SSO 5 km/h 8 km/h 66.4% 0.0 mm
04:39 11.1 °C 5.6 °C 1006.5 hPa ESE 4.5 km/h 6.4 km/h 68.7% 0.0 mm
04:44 10.8 °C 5.5 °C 1006.5 hPa ESE 3.9 km/h 7.6 km/h 69.8% 0.0 mm
04:49 10.6 °C 5.5 °C 1006.7 hPa ESE 3.9 km/h 9.3 km/h 70.9% 0.0 mm
04:54 10.4 °C 5.4 °C 1006.7 hPa SE 3.9 km/h 9.7 km/h 71% 0.0 mm
04:59 10.3 °C 5.3 °C 1006.7 hPa SE 4.2 km/h 9.7 km/h 71% 0.0 mm
05:04 10.3 °C 5.2 °C 1006.9 hPa SE 4.6 km/h 8 km/h 70.7% 0.0 mm
05:09 10.4 °C 5.1 °C 1006.9 hPa SE 4.1 km/h 6.4 km/h 70% 0.0 mm
05:14 10.4 °C 5 °C 1006.9 hPa SSE 3.2 km/h 7.6 km/h 69.4% 0.0 mm
05:19 10.6 °C 4.9 °C 1007.0 hPa SO 3.5 km/h 9.5 km/h 67.9% 0.0 mm
05:24 10.7 °C 5.1 °C 1007.0 hPa Sur 3.9 km/h 9.7 km/h 68% 0.0 mm
05:29 10.7 °C 5.1 °C 1007.0 hPa SO 4.6 km/h 9.7 km/h 68% 0.0 mm
05:34 10.7 °C 5 °C 1007.3 hPa OSO 5.8 km/h 9.7 km/h 67.6% 0.0 mm
05:39 10.7 °C 4.8 °C 1007.3 hPa Oeste 5.8 km/h 11.1 km/h 67% 0.0 mm
05:44 10.7 °C 4.8 °C 1007.3 hPa ONO 5.8 km/h 11.3 km/h 67% 0.0 mm
05:49 10.7 °C 4.8 °C 1007.4 hPa OSO 5.3 km/h 8 km/h 67% 0.0 mm
05:54 10.7 °C 4.8 °C 1007.4 hPa SO 4.7 km/h 8 km/h 67% 0.0 mm
05:59 10.7 °C 4.8 °C 1007.4 hPa SO 4.7 km/h 8 km/h 67% 0.0 mm
06:04 10.7 °C 5.1 °C 1007.4 hPa SE 4.6 km/h 8 km/h 68.6% 0.0 mm
06:09 10.5 °C 5.2 °C 1007.3 hPa SE 4.3 km/h 8 km/h 69.8% 0.0 mm
06:14 10.3 °C 5.3 °C 1007.3 hPa SSO 3.9 km/h 8 km/h 70.7% 0.0 mm
06:19 10.3 °C 5.2 °C 1007.5 hPa OSO 4.2 km/h 8.7 km/h 70.5% 0.0 mm
06:24 10.3 °C 5.4 °C 1007.5 hPa SSE 4.7 km/h 9.5 km/h 71.6% 0.0 mm
06:29 10.1 °C 5.4 °C 1007.5 hPa SE 5.3 km/h 11.1 km/h 72.7% 0.0 mm
06:34 9.8 °C 5.2 °C 1007.5 hPa SSE 6.5 km/h 11.3 km/h 73% 0.0 mm
06:39 9.7 °C 5.4 °C 1007.4 hPa SE 6.5 km/h 9.7 km/h 74.3% 0.0 mm
06:44 9.6 °C 5.4 °C 1007.4 hPa ESE 6.5 km/h 9.7 km/h 75% 0.0 mm
06:49 9.4 °C 5.3 °C 1007.6 hPa ESE 5.5 km/h 6.4 km/h 75.5% 0.0 mm
06:54 9.4 °C 5.2 °C 1007.6 hPa SSE 3.9 km/h 10 km/h 75% 0.0 mm
06:59 9.7 °C 5.3 °C 1007.6 hPa SSE 4.8 km/h 9.7 km/h 74.2% 0.0 mm
07:04 9.8 °C 5.3 °C 1007.7 hPa SSE 5.8 km/h 9.7 km/h 73.4% 0.0 mm
07:09 9.8 °C 5.2 °C 1007.7 hPa SSE 4.6 km/h 6.4 km/h 73% 0.0 mm
07:14 10 °C 5.4 °C 1007.7 hPa SSO 2.9 km/h 8 km/h 73.2% 0.0 mm
07:19 9.9 °C 5.4 °C 1007.9 hPa Oeste 3 km/h 6.4 km/h 73.6% 0.0 mm
07:24 9.8 °C 5.4 °C 1007.9 hPa Oeste 3.2 km/h 6.4 km/h 74% 0.0 mm
07:29 9.8 °C 5.3 °C 1007.9 hPa Oeste 3.1 km/h 8.7 km/h 74% 0.0 mm
07:34 9.5 °C 5.1 °C 1008.3 hPa SE 2.9 km/h 11.1 km/h 74.2% 0.0 mm
07:39 9.3 °C 5 °C 1008.3 hPa Sur 4.4 km/h 11.3 km/h 74.2% 0.0 mm
07:44 9.6 °C 4.8 °C 1008.3 hPa SSE 6.9 km/h 9.7 km/h 72.1% 0.0 mm
07:49 10 °C 5.1 °C 1008.6 hPa SSE 5.5 km/h 8 km/h 71.7% 0.0 mm
07:54 10.4 °C 5.3 °C 1008.6 hPa Este 3.2 km/h 5.6 km/h 70.4% 0.0 mm
07:59 10.7 °C 5.4 °C 1008.6 hPa ENE 3.1 km/h 5.6 km/h 69.8% 0.0 mm
08:04 10.8 °C 5.4 °C 1008.7 hPa ENE 2.9 km/h 8.7 km/h 69% 0.0 mm
08:09 10.8 °C 5.3 °C 1008.7 hPa SE 3 km/h 10 km/h 68.6% 0.0 mm
08:14 10.6 °C 5.3 °C 1008.7 hPa SE 3.2 km/h 9.7 km/h 69.7% 0.0 mm
08:19 10.3 °C 5.3 °C 1009.0 hPa SE 3.8 km/h 9.7 km/h 71% 0.0 mm
08:24 10.4 °C 5.5 °C 1009.0 hPa SE 4.7 km/h 6.4 km/h 71.8% 0.0 mm
08:29 10.8 °C 5.6 °C 1009.0 hPa SE 2.9 km/h 5 km/h 70.6% 0.0 mm
08:34 11.1 °C 5.7 °C 1009.0 hPa Calm   13.7 km/h 69.4% 0.0 mm
08:39 11.1 °C 5.7 °C 1009.0 hPa SE 1.3 km/h 14.5 km/h 69.4% 0.0 mm
08:44 11.2 °C 5.7 °C 1009.0 hPa SE 3.2 km/h 3.2 km/h 68.7% 0.0 mm
08:49 11.3 °C 5.6 °C 1009.1 hPa SE 2 km/h 3.9 km/h 67.7% 0.0 mm
08:54 11.4 °C 5.5 °C 1009.1 hPa Calm   7.4 km/h 67% 0.0 mm
08:59 11.6 °C 5.6 °C 1009.1 hPa ONO 1.6 km/h 9.3 km/h 66.5% 0.0 mm
09:04 11.8 °C 5.4 °C 1009.3 hPa OSO 3.2 km/h 9.7 km/h 65% 0.0 mm
09:09 12 °C 5.5 °C 1009.3 hPa SO 3.2 km/h 9.7 km/h 64.2% 0.0 mm
09:14 12.3 °C 5.5 °C 1009.3 hPa SO 3.2 km/h 5.6 km/h 62.9% 0.0 mm
09:19 12.6 °C 5.5 °C 1009.4 hPa ONO 3.1 km/h 9.5 km/h 61.6% 0.0 mm
09:24 12.6 °C 5.4 °C 1009.4 hPa Oeste 2.9 km/h 11.1 km/h 61.4% 0.0 mm
09:29 12.6 °C 5.4 °C 1009.4 hPa Oeste 4.4 km/h 13 km/h 61.7% 0.0 mm
09:34 12.7 °C 5.5 °C 1009.8 hPa SO 6.9 km/h 12.9 km/h 61.7% 0.0 mm
09:39 13 °C 5.4 °C 1009.8 hPa SSE 5.7 km/h 8.4 km/h 60.1% 0.0 mm
09:44 13.2 °C 5.2 °C 1009.8 hPa Sur 3.9 km/h 10.3 km/h 58.3% 0.0 mm
09:49 13.4 °C 5.4 °C 1010.0 hPa SSE 4.6 km/h 12.2 km/h 58.4% 0.0 mm
09:54 13.6 °C 5.7 °C 1010.0 hPa SSO 5.8 km/h 13 km/h 58.9% 0.0 mm
09:59 13.7 °C 5.6 °C 1010.0 hPa SO 5.4 km/h 11.3 km/h 58.1% 0.0 mm
10:04 14 °C 5.4 °C 1010.0 hPa SO 5 km/h 13 km/h 56.2% 0.0 mm
10:09 14.2 °C 5.3 °C 1010.0 hPa SSO 6.3 km/h 14.8 km/h 55.1% 0.0 mm
10:14 14.5 °C 5.2 °C 1010.0 hPa SO 8.4 km/h 14.5 km/h 53.6% 0.0 mm
10:19 14.7 °C 5 °C 1010.0 hPa OSO 7.4 km/h 11.9 km/h 52% 0.0 mm
10:24 14.9 °C 5.1 °C 1010.0 hPa SO 5.8 km/h 15.6 km/h 51.7% 0.0 mm
10:29 15.1 °C 4.8 °C 1010.0 hPa Oeste 6.2 km/h 16.1 km/h 50% 0.0 mm
10:34 15.2 °C 4.7 °C 1010.0 hPa OSO 6.9 km/h 14.8 km/h 49.5% 0.0 mm
10:39 15.3 °C 4.5 °C 1010.0 hPa OSO 7.2 km/h 14.5 km/h 48.4% 0.0 mm
10:44 15.4 °C 4.6 °C 1010.0 hPa SSO 7.6 km/h 12.9 km/h 48.3% 0.0 mm
10:49 15.7 °C 4.8 °C 1010.0 hPa OSO 6.9 km/h 13.7 km/h 48.5% 0.0 mm
10:54 15.9 °C 4.6 °C 1009.9 hPa Oeste 5.8 km/h 14.5 km/h 47.2% 0.0 mm
10:59 16.1 °C 4.7 °C 1009.9 hPa SO 6.3 km/h 14.8 km/h 46.7% 0.0 mm
11:04 16.3 °C 4.2 °C 1010.1 hPa SO 6.9 km/h 14.5 km/h 44.5% 0.0 mm
11:09 16.5 °C 4.2 °C 1010.1 hPa SO 6.2 km/h 11.3 km/h 44% 0.0 mm
11:14 16.7 °C 4.4 °C 1010.1 hPa SO 5 km/h 11.1 km/h 44.2% 0.0 mm
11:19 16.8 °C 4.4 °C 1010.1 hPa OSO 5 km/h 11.3 km/h 44.1% 0.0 mm
11:24 17 °C 4 °C 1010.1 hPa SSO 5 km/h 14.8 km/h 42.2% 0.0 mm
11:29 17.2 °C 3.8 °C 1010.1 hPa SO 5.5 km/h 14.8 km/h 41% 0.0 mm
11:34 17.5 °C 3.6 °C 1010.1 hPa SSO 6.5 km/h 21.7 km/h 39.4% 0.0 mm
11:39 17.7 °C 3.2 °C 1010.0 hPa SSO 7.8 km/h 22.5 km/h 38% 0.0 mm
11:44 17.8 °C 3.2 °C 1010.0 hPa SSO 10 km/h 22.5 km/h 37.8% 0.0 mm
11:49 17.8 °C 3.4 °C 1010.2 hPa SSO 10 km/h 19.3 km/h 38.3% 0.0 mm
11:54 18 °C 3.3 °C 1010.2 hPa SSO 10 km/h 26.2 km/h 37.6% 0.0 mm
11:59 18 °C 2.9 °C 1010.2 hPa SSE 10.6 km/h 25.9 km/h 36.4% 0.0 mm
12:04 17.9 °C 3.1 °C 1010.2 hPa ESE 11.1 km/h 24.1 km/h 37.2% 0.0 mm
12:09 18.1 °C 3.3 °C 1010.1 hPa SSE 11.1 km/h 20.9 km/h 37.2% 0.0 mm
12:14 18.2 °C 3.2 °C 1010.1 hPa SSE 11.1 km/h 20.9 km/h 37% 0.0 mm
12:19 18.1 °C 3.7 °C 1010.1 hPa SSE 11.4 km/h 29.8 km/h 38.3% 0.0 mm
12:24 18.2 °C 4.2 °C 1010.1 hPa SSE 11.9 km/h 30.6 km/h 39.7% 0.0 mm
12:29 18.3 °C 4.2 °C 1010.1 hPa SE 13.4 km/h 27.8 km/h 39.2% 0.0 mm
12:34 18.3 °C 4 °C 1010.1 hPa SE 16.1 km/h 27.4 km/h 38.7% 0.0 mm
12:39 18.2 °C 3.9 °C 1010.1 hPa SSE 16.1 km/h 27.8 km/h 38.9% 0.0 mm
12:44 18.2 °C 4.1 °C 1010.1 hPa SSE 16.1 km/h 29.6 km/h 39.4% 0.0 mm
12:49 18.2 °C 4.1 °C 1010.1 hPa SSE 16.1 km/h 29 km/h 39.3% 0.0 mm
12:54 18.3 °C 4.1 °C 1010.1 hPa SSE 16.1 km/h 24.1 km/h 38.9% 0.0 mm
12:59 18.7 °C 3.9 °C 1010.1 hPa SE 14.6 km/h 22.5 km/h 37.6% 0.0 mm
13:04 18.7 °C 3.7 °C 1010.1 hPa SSE 13 km/h 26.2 km/h 37% 0.0 mm
13:09 18.7 °C 3.6 °C 1010.0 hPa SSE 12.3 km/h 25.7 km/h 36.7% 0.0 mm
13:14 18.8 °C 3.6 °C 1010.0 hPa SE 11.1 km/h 26.2 km/h 36.4% 0.0 mm
13:19 19 °C 3.9 °C 1010.0 hPa SE 11.4 km/h 25.9 km/h 36.8% 0.0 mm
13:24 19.2 °C 4.1 °C 1009.7 hPa SSE 11.9 km/h 28.2 km/h 36.9% 0.0 mm
13:29 19.1 °C 4.1 °C 1009.7 hPa SSE 12.7 km/h 27.4 km/h 37.1% 0.0 mm
13:34 19.1 °C 4.4 °C 1009.7 hPa SSE 14 km/h 29.6 km/h 38.1% 0.0 mm
13:39 18.8 °C 4.7 °C 1009.5 hPa SE 14.8 km/h 29 km/h 39.4% 0.0 mm
13:44 18.8 °C 4.9 °C 1009.5 hPa SE 16.1 km/h 27.4 km/h 39.8% 0.0 mm
13:49 19 °C 5.1 °C 1009.5 hPa SE 15.3 km/h 25.7 km/h 40% 0.0 mm
13:54 19.2 °C 5.5 °C 1009.3 hPa SE 14 km/h 29.6 km/h 40.8% 0.0 mm
13:59 19.2 °C 5.5 °C 1009.3 hPa SE 15.9 km/h 29.8 km/h 40.6% 0.0 mm
14:04 19.1 °C 5.3 °C 1009.3 hPa SSE 18 km/h 30.6 km/h 40.3% 0.0 mm
14:09 19.1 °C 5.3 °C 1009.3 hPa SSE 18.2 km/h 32.3 km/h 40.4% 0.0 mm
14:14 19.1 °C 5.2 °C 1009.3 hPa Sur 18.4 km/h 34.6 km/h 40.1% 0.0 mm
14:19 19 °C 4.9 °C 1009.3 hPa Sur 18.9 km/h 35.4 km/h 39.6% 0.0 mm
14:24 19.2 °C 5 °C 1009.2 hPa Sur 19.8 km/h 29.6 km/h 39.3% 0.0 mm
14:29 19.3 °C 4.7 °C 1009.2 hPa SSE 18.6 km/h 29 km/h 38.3% 0.0 mm
14:34 19.4 °C 5.1 °C 1009.2 hPa Sur 16.4 km/h 27.8 km/h 39% 0.0 mm
14:39 19.5 °C 5.7 °C 1009.1 hPa SSE 17.2 km/h 34.3 km/h 40.5% 0.0 mm
14:44 19.4 °C 6 °C 1009.1 hPa Sur 18.4 km/h 35.2 km/h 41.4% 0.0 mm
14:49 19.3 °C 6.2 °C 1009.1 hPa Sur 19.3 km/h 35.4 km/h 42.3% 0.0 mm
14:54 19.4 °C 6.5 °C 1009.0 hPa SSE 20.9 km/h 32.3 km/h 43.1% 0.0 mm
14:59 19.5 °C 6.9 °C 1009.0 hPa SSE 20.5 km/h 33.8 km/h 44% 0.0 mm
15:04 19.6 °C 6.4 °C 1009.1 hPa SSE 20.1 km/h 35.2 km/h 42.3% 0.0 mm
15:09 19.5 °C 6.7 °C 1009.1 hPa SSE 20 km/h 35.4 km/h 43.3% 0.0 mm
15:14 19.7 °C 7 °C 1009.1 hPa SSE 19.8 km/h 33.8 km/h 43.9% 0.0 mm
15:19 19.9 °C 7 °C 1009.1 hPa SSE 18.8 km/h 30.6 km/h 43.1% 0.0 mm
15:24 19.9 °C 6.9 °C 1008.9 hPa SE 17.2 km/h 34.3 km/h 42.7% 0.0 mm
15:29 19.8 °C 7.1 °C 1008.9 hPa SSE 17.9 km/h 33.8 km/h 43.7% 0.0 mm
15:34 19.7 °C 6.7 °C 1008.9 hPa SE 19 km/h 34.6 km/h 42.7% 0.0 mm
15:39 19.8 °C 7.4 °C 1008.8 hPa SE 19.4 km/h 35.4 km/h 44.7% 0.0 mm
15:44 19.7 °C 7.8 °C 1008.8 hPa SE 20.1 km/h 30.9 km/h 46.2% 0.0 mm
15:49 19.8 °C 8 °C 1008.8 hPa SE 20.1 km/h 33.3 km/h 46.3% 0.0 mm
15:54 19.7 °C 7.8 °C 1008.7 hPa SE 20.1 km/h 33.8 km/h 46.2% 0.0 mm
15:59 19.7 °C 8.5 °C 1008.7 hPa SSE 19.3 km/h 33.8 km/h 48.2% 0.0 mm
16:04 19.9 °C 8.1 °C 1008.7 hPa SSE 18.4 km/h 29.8 km/h 46.5% 0.0 mm
16:09 19.9 °C 7.6 °C 1008.6 hPa SSE 18.4 km/h 33.3 km/h 44.9% 0.0 mm
16:14 19.8 °C 7.2 °C 1008.6 hPa SE 18.4 km/h 35.9 km/h 44% 0.0 mm
16:19 20.2 °C 7.7 °C 1008.6 hPa SSE 18.4 km/h 35.4 km/h 44.4% 0.0 mm
16:24 20.2 °C 7.4 °C 1008.3 hPa Sur 18.4 km/h 33.8 km/h 43.6% 0.0 mm
16:29 20.1 °C 7.6 °C 1008.3 hPa SSE 19.3 km/h 37 km/h 44.6% 0.0 mm
16:34 19.9 °C 7.9 °C 1008.4 hPa SSE 20.9 km/h 37 km/h 45.8% 0.0 mm
16:39 20 °C 7.6 °C 1008.4 hPa SSE 20.6 km/h 35.4 km/h 44.8% 0.0 mm
16:44 20 °C 7.5 °C 1008.4 hPa Sur 20.1 km/h 35.2 km/h 44.2% 0.0 mm
16:49 19.8 °C 7.5 °C 1008.4 hPa SSE 21 km/h 38.9 km/h 45% 0.0 mm
16:54 19.8 °C 7.7 °C 1008.3 hPa SSE 22.5 km/h 38.6 km/h 45.5% 0.0 mm
16:59 20 °C 8.1 °C 1008.3 hPa Sur 20.9 km/h 32.2 km/h 46.1% 0.0 mm
17:04 20 °C 7.8 °C 1008.3 hPa SSE 19 km/h 35.2 km/h 45.3% 0.0 mm
17:09 20.2 °C 7.9 °C 1008.1 hPa SSE 18.7 km/h 35.4 km/h 44.9% 0.0 mm
17:14 20.3 °C 8.2 °C 1008.1 hPa SSE 18.4 km/h 29.1 km/h 45.7% 0.0 mm
17:19 20.3 °C 8.3 °C 1008.1 hPa Sur 17.9 km/h 29.6 km/h 45.9% 0.0 mm
17:24 20.3 °C 8.1 °C 1008.1 hPa Sur 17.2 km/h 27.8 km/h 45.5% 0.0 mm
17:29 20.3 °C 7.8 °C 1008.1 hPa Sur 17.2 km/h 33.3 km/h 44.4% 0.0 mm
17:34 20.3 °C 8.4 °C 1008.1 hPa Sur 17.2 km/h 33.8 km/h 46.2% 0.0 mm
17:39 20.3 °C 8.5 °C 1008.0 hPa Sur 17.6 km/h 32.2 km/h 46.8% 0.0 mm
17:44 20.4 °C 8.4 °C 1008.0 hPa Sur 18.4 km/h 34.3 km/h 46.2% 0.0 mm
17:49 20.3 °C 8.3 °C 1008.1 hPa SSE 18.9 km/h 33.8 km/h 46.1% 0.0 mm
17:54 20.3 °C 8.6 °C 1008.1 hPa SSE 19.8 km/h 33.8 km/h 47.1% 0.0 mm
17:59 20.2 °C 8.8 °C 1008.1 hPa SSE 19 km/h 30.6 km/h 47.8% 0.0 mm
18:04 20.2 °C 9 °C 1008.1 hPa SSE 18 km/h 33.3 km/h 48.4% 0.0 mm
18:09 20.2 °C 9.2 °C 1008.0 hPa SSE 18.7 km/h 33.8 km/h 49.2% 0.0 mm
18:14 20.1 °C 9.2 °C 1008.0 hPa SSE 19.8 km/h 32.3 km/h 49.5% 0.0 mm
18:19 20.2 °C 9.4 °C 1008.1 hPa SSE 19.5 km/h 32.2 km/h 50% 0.0 mm
18:24 20.3 °C 9.4 °C 1008.1 hPa SSE 19 km/h 34.3 km/h 49.7% 0.0 mm
18:29 20.1 °C 9.2 °C 1008.1 hPa SE 18.6 km/h 33.8 km/h 49.4% 0.0 mm
18:34 19.9 °C 9.5 °C 1008.2 hPa SSE 18 km/h 31.7 km/h 51% 0.0 mm
18:39 19.8 °C 9.2 °C 1008.2 hPa SSE 18.7 km/h 35.2 km/h 50.5% 0.0 mm
18:44 19.7 °C 9.5 °C 1008.2 hPa SSE 19.8 km/h 35.4 km/h 51.9% 0.0 mm
18:49 19.7 °C 9.7 °C 1008.2 hPa SSE 19.1 km/h 34.3 km/h 52.4% 0.0 mm
18:54 19.7 °C 9.8 °C 1008.1 hPa SSE 18 km/h 33.8 km/h 52.8% 0.0 mm
18:59 19.7 °C 9.9 °C 1008.1 hPa SSE 18 km/h 35.9 km/h 53.2% 0.0 mm
19:04 19.5 °C 9.9 °C 1008.1 hPa SSE 18 km/h 35.4 km/h 53.8% 0.0 mm
19:09 19.4 °C 10.3 °C 1008.1 hPa SSE 18 km/h 30.6 km/h 55.6% 0.0 mm
19:14 19.4 °C 10.5 °C 1008.1 hPa SSE 18 km/h 30.6 km/h 56.4% 0.0 mm
19:19 19.3 °C 10.8 °C 1008.2 hPa SSE 17.1 km/h 33.3 km/h 57.9% 0.0 mm
19:24 19.1 °C 10.6 °C 1008.2 hPa SSE 15.6 km/h 33.8 km/h 58% 0.0 mm
19:29 18.9 °C 10.7 °C 1008.2 hPa SSE 16.7 km/h 32.2 km/h 58.7% 0.0 mm
19:34 18.8 °C 10.6 °C 1008.4 hPa Sur 18.4 km/h 27.4 km/h 58.9% 0.0 mm
19:39 18.7 °C 10.5 °C 1008.4 hPa SSE 17.3 km/h 25.9 km/h 58.8% 0.0 mm
19:44 18.6 °C 10.4 °C 1008.4 hPa SSE 15.6 km/h 34.3 km/h 58.6% 0.0 mm
19:49 18.5 °C 10.2 °C 1008.5 hPa SSE 15.9 km/h 33.8 km/h 58.4% 0.0 mm
19:54 18.4 °C 10.5 °C 1008.5 hPa Sur 16.4 km/h 30.6 km/h 59.8% 0.0 mm
19:59 18.4 °C 10.5 °C 1008.5 hPa Sur 15.2 km/h 25.9 km/h 60% 0.0 mm
20:04 18.3 °C 10.4 °C 1008.5 hPa SSE 14 km/h 24.5 km/h 59.8% 0.0 mm
20:09 18.3 °C 10.2 °C 1008.3 hPa SSE 13.9 km/h 24.1 km/h 59% 0.0 mm
20:14 18.3 °C 10.2 °C 1008.3 hPa SSE 13.7 km/h 25.9 km/h 59% 0.0 mm
20:19 18.2 °C 10.2 °C 1008.4 hPa SSE 13.7 km/h 25.7 km/h 59.6% 0.0 mm
20:24 18.2 °C 10.3 °C 1008.4 hPa SSE 13.7 km/h 20.9 km/h 60% 0.0 mm
20:29 18.3 °C 10.3 °C 1008.4 hPa SSO 10.3 km/h 12.2 km/h 59.9% 0.0 mm
20:34 18.3 °C 10.1 °C 1008.6 hPa SSE 5 km/h 20.9 km/h 59% 0.0 mm
20:39 18.1 °C 10.1 °C 1008.6 hPa SSE 7 km/h 20.9 km/h 59.8% 0.0 mm
20:44 17.9 °C 10 °C 1008.6 hPa SSE 10.3 km/h 20.9 km/h 60% 0.0 mm
20:49 17.9 °C 10 °C 1008.7 hPa ESE 8.9 km/h 14.5 km/h 60% 0.0 mm
20:54 17.8 °C 10.3 °C 1008.7 hPa NNE 6.5 km/h 9.5 km/h 61.5% 0.0 mm
20:59 17.7 °C 10.4 °C 1008.7 hPa North 5.6 km/h 9.7 km/h 62.6% 0.0 mm
21:04 17.5 °C 10.1 °C 1009.0 hPa Oeste 4.6 km/h 8 km/h 61.9% 0.0 mm
21:09 17.4 °C 10.2 °C 1009.0 hPa NE 4.4 km/h 8.4 km/h 62.5% 0.0 mm
21:14 17.4 °C 10.2 °C 1009.0 hPa NNE 3.9 km/h 8 km/h 62.7% 0.0 mm
21:19 17.4 °C 10.5 °C 1009.3 hPa NNO 3.6 km/h 8 km/h 64% 0.0 mm
21:24 17.3 °C 10.2 °C 1009.3 hPa NE 3.2 km/h 8 km/h 63.3% 0.0 mm
21:29 17.2 °C 10.2 °C 1009.3 hPa ENE 3.1 km/h 7.4 km/h 63.5% 0.0 mm
21:34 17.2 °C 10.3 °C 1009.4 hPa SSO 2.9 km/h 8 km/h 64.1% 0.0 mm
21:39 17.2 °C 10.7 °C 1009.4 hPa ESE 2.9 km/h 8.4 km/h 65.6% 0.0 mm
21:44 17 °C 10.8 °C 1009.4 hPa Este 2.9 km/h 8 km/h 66.9% 0.0 mm
21:49 16.8 °C 10.9 °C 1009.5 hPa Este 3.6 km/h 8.4 km/h 68.4% 0.0 mm
21:54 16.6 °C 11 °C 1009.5 hPa Este 4.7 km/h 8 km/h 69.5% 0.0 mm
21:59 16.4 °C 11 °C 1009.5 hPa Este 4.8 km/h 13 km/h 70.4% 0.0 mm
22:04 16.2 °C 11 °C 1009.7 hPa ESE 5 km/h 17.2 km/h 71.6% 0.0 mm
22:09 16.1 °C 11.1 °C 1009.7 hPa SE 5.7 km/h 17.7 km/h 72% 0.0 mm
22:14 16.1 °C 11.1 °C 1009.7 hPa SE 6.9 km/h 8 km/h 72% 0.0 mm
22:19 16.1 °C 11 °C 1010.1 hPa SE 5.3 km/h 5.8 km/h 71.7% 0.0 mm
22:24 16.1 °C 11.1 °C 1010.1 hPa SO 2.9 km/h 8.4 km/h 71.8% 0.0 mm
22:29 16.1 °C 11.1 °C 1010.1 hPa Oeste 3 km/h 8 km/h 72% 0.0 mm
22:34 16 °C 11 °C 1010.1 hPa Oeste 3.2 km/h 6.4 km/h 72.2% 0.0 mm
22:39 15.9 °C 11.1 °C 1010.1 hPa Oeste 2 km/h   73% 0.0 mm
22:44 15.9 °C 11.1 °C 1010.1 hPa Calm     73% 0.0 mm
22:49 15.9 °C 11.1 °C 1010.6 hPa Calm     73.1% 0.0 mm
22:54 15.9 °C 11.2 °C 1010.6 hPa Calm   7.4 km/h 73.8% 0.0 mm
22:59 15.8 °C 11.2 °C 1010.6 hPa NO 1.4 km/h 8 km/h 74% 0.0 mm
23:04 15.7 °C 11.1 °C 1010.6 hPa ENE 2.9 km/h 7.4 km/h 74% 0.0 mm
23:09 15.7 °C 11.2 °C 1010.6 hPa ESE 3.6 km/h 8 km/h 74.8% 0.0 mm
23:14 15.6 °C 11.1 °C 1010.6 hPa SE 4.7 km/h 10 km/h 74.8% 0.0 mm
23:19 15.7 °C 11 °C 1010.6 hPa Sur 5.1 km/h 11.9 km/h 73.8% 0.0 mm
23:24 15.8 °C 10.9 °C 1010.4 hPa SO 5.8 km/h 11.9 km/h 73% 0.0 mm
23:29 15.8 °C 10.9 °C 1010.4 hPa SO 5.8 km/h 11.3 km/h 72.6% 0.0 mm
23:34 15.9 °C 10.8 °C 1010.4 hPa Sur 5.8 km/h 11.3 km/h 72% 0.0 mm
23:39 15.9 °C 10.8 °C 1010.3 hPa SSE 5.8 km/h 9.7 km/h 71.6% 0.0 mm
23:44 15.9 °C 10.8 °C 1010.3 hPa ESE 5.8 km/h 13.7 km/h 72% 0.0 mm
23:49 15.5 °C 10.7 °C 1010.3 hPa ESE 6.5 km/h 14.5 km/h 72.9% 0.0 mm
23:54 15.3 °C 10.6 °C 1010.1 hPa ESE 7.6 km/h 12.9 km/h 73.3% 0.0 mm
23:59 15.2 °C 10.6 °C 1010.1 hPa ESE 7.3 km/h 11.3 km/h 74% 0.0 mm
Murcia-Puente Tocinos, España
Compliments of Weather Underground - 3 mb

La estación de MeteoMurcia.com, publica sus datos en los siguientes proyectos:

Weather Underground PWS IMURCIAP2 Meteoclimatic www.awekas.at

W3Counter
Web Analytics